Wetterdaten: Woche 26.03.07 - 01.04.07 (KW13)
Datum Zeit Temperatur Luftfeuchte Luftdruck Niederschlag Windrichtung Wind
26.03.2007 00:00 3,8 C 71 % 1017 hPa 0,0 l/m - - 0,0 km/h (0 Bft)
26.03.2007 01:00 3,4 C 74 % 1017 hPa 0,0 l/m - - 0,0 km/h (0 Bft)
26.03.2007 02:00 2,8 C 75 % 1017 hPa 0,0 l/m - - 0,0 km/h (0 Bft)
26.03.2007 03:00 2,1 C 78 % 1017 hPa 0,0 l/m - - 0,0 km/h (0 Bft)
26.03.2007 04:00 1,7 C 80 % 1017 hPa 0,0 l/m - - 0,0 km/h (0 Bft)
26.03.2007 05:00 1,7 C 84 % 1017 hPa 0,0 l/m - - 0,0 km/h (0 Bft)
26.03.2007 06:00 1,3 C 86 % 1017 hPa 0,0 l/m - - 0,0 km/h (0 Bft)
26.03.2007 07:00 1,1 C 89 % 1018 hPa 0,0 l/m - - 0,0 km/h (0 Bft)
26.03.2007 08:00 2,7 C 88 % 1018 hPa 0,0 l/m - - 0,0 km/h (0 Bft)
26.03.2007 09:00 4,3 C 76 % 1018 hPa 0,0 l/m - - 0,0 km/h (0 Bft)
26.03.2007 10:00 7,1 C 59 % 1018 hPa 0,0 l/m - - 0,0 km/h (0 Bft)
26.03.2007 11:00 9,4 C 49 % 1018 hPa 0,0 l/m - - 0,0 km/h (0 Bft)
26.03.2007 12:00 10,9 C 44 % 1018 hPa 0,0 l/m - - 0,0 km/h (0 Bft)
26.03.2007 13:00 12,5 C 41 % 1018 hPa 0,0 l/m - - 0,0 km/h (0 Bft)
26.03.2007 14:00 14,1 C 38 % 1017 hPa 0,0 l/m - - 0,0 km/h (0 Bft)
26.03.2007 15:00 14,7 C 36 % 1017 hPa 0,0 l/m - - 0,0 km/h (0 Bft)
26.03.2007 16:00 14,4 C 36 % 1017 hPa 0,0 l/m - - 0,0 km/h (0 Bft)
26.03.2007 17:00 14,3 C 35 % 1017 hPa 0,0 l/m - - 0,0 km/h (0 Bft)
26.03.2007 18:00 13,7 C 36 % 1017 hPa 0,0 l/m - - 0,0 km/h (0 Bft)
26.03.2007 19:00 12,0 C 39 % 1017 hPa 0,0 l/m - - 0,0 km/h (0 Bft)
26.03.2007 20:00 10,4 C 42 % 1017 hPa 0,0 l/m - - 0,0 km/h (0 Bft)
26.03.2007 21:00 9,3 C 44 % 1017 hPa 0,0 l/m - - 0,0 km/h (0 Bft)
26.03.2007 22:00 8,3 C 46 % 1017 hPa 0,0 l/m - - 0,0 km/h (0 Bft)
26.03.2007 23:00 7,3 C 51 % 1017 hPa 0,0 l/m - - 0,0 km/h (0 Bft)
27.03.2007 00:00 6,2 C 57 % 1017 hPa 0,0 l/m - - 0,0 km/h (0 Bft)
27.03.2007 01:00 5,4 C 61 % 1017 hPa 0,0 l/m - - 0,0 km/h (0 Bft)
27.03.2007 02:00 4,4 C 65 % 1017 hPa 0,0 l/m - - 0,0 km/h (0 Bft)
27.03.2007 03:00 3,4 C 68 % 1017 hPa 0,0 l/m - - 0,0 km/h (0 Bft)
27.03.2007 04:00 2,3 C 73 % 1017 hPa 0,0 l/m - - 0,0 km/h (0 Bft)
27.03.2007 05:00 1,4 C 77 % 1017 hPa 0,0 l/m - - 0,0 km/h (0 Bft)
27.03.2007 06:00 0,8 C 82 % 1017 hPa 0,0 l/m - - 0,0 km/h (0 Bft)
27.03.2007 07:00 0,5 C 85 % 1017 hPa 0,0 l/m - - 0,0 km/h (0 Bft)
27.03.2007 08:00 1,3 C 87 % 1017 hPa 0,0 l/m - - 0,0 km/h (0 Bft)
27.03.2007 09:00 3,3 C 78 % 1017 hPa 0,0 l/m - - 0,0 km/h (0 Bft)
27.03.2007 10:00 6,3 C 63 % 1017 hPa 0,0 l/m - - 0,0 km/h (0 Bft)
27.03.2007 11:00 8,2 C 56 % 1017 hPa 0,0 l/m - - 0,0 km/h (0 Bft)
27.03.2007 12:00 9,0 C 54 % 1017 hPa 0,0 l/m - - 0,0 km/h (0 Bft)
27.03.2007 13:00 10,7 C 49 % 1017 hPa 0,0 l/m - - 0,0 km/h (0 Bft)
27.03.2007 14:00 11,4 C 48 % 1017 hPa 0,0 l/m - - 0,0 km/h (0 Bft)
27.03.2007 15:00 13,2 C 40 % 1017 hPa 0,0 l/m - - 0,0 km/h (0 Bft)
27.03.2007 16:00 13,8 C 36 % 1016 hPa 0,0 l/m - - 0,0 km/h (0 Bft)
27.03.2007 17:00 13,6 C 36 % 1016 hPa 0,0 l/m - - 0,0 km/h (0 Bft)
27.03.2007 18:00 13,2 C 35 % 1016 hPa 0,0 l/m - - 0,0 km/h (0 Bft)
27.03.2007 19:00 12,0 C 38 % 1016 hPa 0,0 l/m - - 0,0 km/h (0 Bft)
27.03.2007 20:00 9,6 C 43 % 1017 hPa 0,0 l/m - - 0,0 km/h (0 Bft)
27.03.2007 21:00 8,5 C 46 % 1017 hPa 0,0 l/m - - 0,0 km/h (0 Bft)
27.03.2007 22:00 6,7 C 52 % 1017 hPa 0,0 l/m - - 0,0 km/h (0 Bft)
27.03.2007 23:00 5,1 C 59 % 1017 hPa 0,0 l/m - - 0,0 km/h (0 Bft)
28.03.2007 00:00 4,1 C 64 % 1017 hPa 0,0 l/m - - 0,0 km/h (0 Bft)
28.03.2007 01:00 3,4 C 68 % 1017 hPa 0,0 l/m - - 0,0 km/h (0 Bft)
28.03.2007 02:00 2,7 C 71 % 1017 hPa 0,0 l/m - - 0,0 km/h (0 Bft)
28.03.2007 03:00 2,0 C 73 % 1017 hPa 0,0 l/m - - 0,0 km/h (0 Bft)
28.03.2007 04:00 1,4 C 76 % 1017 hPa 0,0 l/m - - 0,0 km/h (0 Bft)
28.03.2007 05:00 1,0 C 78 % 1017 hPa 0,0 l/m - - 0,0 km/h (0 Bft)
28.03.2007 06:00 0,5 C 80 % 1017 hPa 0,0 l/m - - 0,0 km/h (0 Bft)
28.03.2007 07:00 0,2 C 83 % 1017 hPa 0,0 l/m - - 0,0 km/h (0 Bft)
28.03.2007 08:00 0,7 C 84 % 1017 hPa 0,0 l/m - - 0,0 km/h (0 Bft)
28.03.2007 09:00 2,5 C 79 % 1017 hPa 0,0 l/m - - 0,0 km/h (0 Bft)
28.03.2007 10:00 6,7 C 57 % 1017 hPa 0,0 l/m - - 0,0 km/h (0 Bft)
28.03.2007 11:00 9,0 C 51 % 1017 hPa 0,0 l/m - - 0,0 km/h (0 Bft)
28.03.2007 12:00 10,6 C 48 % 1016 hPa 0,0 l/m - - 0,0 km/h (0 Bft)
28.03.2007 13:00 12,8 C 43 % 1016 hPa 0,0 l/m - - 0,0 km/h (0 Bft)
28.03.2007 14:00 13,6 C 40 % 1015 hPa 0,0 l/m - - 0,0 km/h (0 Bft)
28.03.2007 15:00 13,7 C 38 % 1015 hPa 0,0 l/m - - 0,0 km/h (0 Bft)
28.03.2007 16:00 12,6 C 40 % 1015 hPa 3,0 l/m - - 0,0 km/h (0 Bft)
28.03.2007 17:00 8,3 C 66 % 1015 hPa 1,0 l/m - - 0,0 km/h (0 Bft)
28.03.2007 18:00 8,4 C 70 % 1015 hPa 0,0 l/m - - 0,0 km/h (0 Bft)
28.03.2007 19:00 7,7 C 74 % 1015 hPa 0,0 l/m - - 0,0 km/h (0 Bft)
28.03.2007 20:00 7,1 C 76 % 1015 hPa 0,0 l/m - - 0,0 km/h (0 Bft)
28.03.2007 21:00 6,4 C 81 % 1015 hPa 0,0 l/m - - 0,0 km/h (0 Bft)
28.03.2007 22:00 5,4 C 84 % 1015 hPa 0,0 l/m - - 0,0 km/h (0 Bft)
28.03.2007 23:00 4,0 C 87 % 1015 hPa 0,0 l/m - - 0,0 km/h (0 Bft)
29.03.2007 00:00 3,1 C 89 % 1015 hPa 0,0 l/m - - 0,0 km/h (0 Bft)
29.03.2007 01:00 2,3 C 91 % 1015 hPa 0,0 l/m - - 0,0 km/h (0 Bft)
29.03.2007 02:00 1,8 C 94 % 1016 hPa 0,0 l/m - - 0,0 km/h (0 Bft)
29.03.2007 03:00 1,4 C 95 % 1016 hPa 0,0 l/m - - 0,0 km/h (0 Bft)
29.03.2007 04:00 1,1 C 96 % 1016 hPa 0,0 l/m - - 0,0 km/h (0 Bft)
29.03.2007 05:00 1,0 C 97 % 1016 hPa 0,0 l/m - - 0,0 km/h (0 Bft)
29.03.2007 06:00 1,0 C 98 % 1016 hPa 0,0 l/m - - 0,0 km/h (0 Bft)
29.03.2007 07:00 0,9 C 98 % 1016 hPa 0,0 l/m - - 0,0 km/h (0 Bft)
29.03.2007 08:00 1,4 C 98 % 1016 hPa 0,0 l/m - - 0,0 km/h (0 Bft)
29.03.2007 09:00 3,4 C 98 % 1016 hPa 0,0 l/m - - 0,0 km/h (0 Bft)
29.03.2007 10:00 7,3 C 87 % 1016 hPa 0,0 l/m - - 0,0 km/h (0 Bft)
29.03.2007 11:00 10,4 C 59 % 1016 hPa 0,0 l/m - - 0,0 km/h (0 Bft)
29.03.2007 12:00 11,6 C 52 % 1016 hPa 0,0 l/m - - 0,0 km/h (0 Bft)
29.03.2007 13:00 12,4 C 46 % 1016 hPa 0,0 l/m - - 0,0 km/h (0 Bft)
29.03.2007 14:00 13,6 C 41 % 1015 hPa 0,0 l/m - - 0,0 km/h (0 Bft)
29.03.2007 15:00 13,3 C 41 % 1015 hPa 0,0 l/m - - 0,0 km/h (0 Bft)
29.03.2007 16:00 11,7 C 47 % 1015 hPa 0,0 l/m - - 0,0 km/h (0 Bft)
29.03.2007 17:00 11,7 C 47 % 1015 hPa 0,0 l/m - - 0,0 km/h (0 Bft)
29.03.2007 18:00 12,1 C 45 % 1014 hPa 0,0 l/m - - 0,0 km/h (0 Bft)
29.03.2007 19:00 10,5 C 50 % 1014 hPa 0,0 l/m - - 0,0 km/h (0 Bft)
29.03.2007 20:00 8,0 C 61 % 1014 hPa 0,0 l/m - - 0,0 km/h (0 Bft)
29.03.2007 21:00 5,9 C 70 % 1015 hPa 0,0 l/m - - 0,0 km/h (0 Bft)
29.03.2007 22:00 4,6 C 76 % 1015 hPa 0,0 l/m - - 0,0 km/h (0 Bft)
29.03.2007 23:00 3,9 C 80 % 1015 hPa 0,0 l/m - - 0,0 km/h (0 Bft)
30.03.2007 00:00 3,3 C 84 % 1014 hPa 0,0 l/m - - 0,0 km/h (0 Bft)
30.03.2007 01:00 2,7 C 87 % 1014 hPa 0,0 l/m - - 0,0 km/h (0 Bft)
30.03.2007 02:00 2,0 C 87 % 1013 hPa 0,0 l/m - - 0,0 km/h (0 Bft)
30.03.2007 03:00 1,3 C 89 % 1013 hPa 0,0 l/m - - 0,0 km/h (0 Bft)
30.03.2007 04:00 0,7 C 90 % 1013 hPa 0,0 l/m - - 0,0 km/h (0 Bft)
30.03.2007 05:00 0,3 C 92 % 1012 hPa 0,0 l/m - - 0,0 km/h (0 Bft)
30.03.2007 06:00 0,0 C 94 % 1012 hPa 0,0 l/m - - 0,0 km/h (0 Bft)
30.03.2007 07:00 0,5 C 96 % 1012 hPa 0,0 l/m - - 0,0 km/h (0 Bft)
30.03.2007 08:00 0,6 C 98 % 1012 hPa 0,0 l/m - - 0,0 km/h (0 Bft)
30.03.2007 09:00 1,8 C 98 % 1012 hPa 0,0 l/m - - 0,0 km/h (0 Bft)
30.03.2007 10:00 5,3 C 96 % 1012 hPa 0,0 l/m - - 0,0 km/h (0 Bft)
30.03.2007 11:00 9,2 C 71 % 1012 hPa 0,0 l/m - - 0,0 km/h (0 Bft)
30.03.2007 12:00 11,4 C 51 % 1011 hPa 0,0 l/m - - 0,0 km/h (0 Bft)
30.03.2007 13:00 12,0 C 52 % 1011 hPa 0,0 l/m - - 0,0 km/h (0 Bft)
30.03.2007 14:00 13,5 C 47 % 1010 hPa 0,0 l/m - - 0,0 km/h (0 Bft)
30.03.2007 15:00 14,5 C 41 % 1009 hPa 0,0 l/m - - 0,0 km/h (0 Bft)
30.03.2007 16:00 14,2 C 36 % 1008 hPa 0,0 l/m - - 0,0 km/h (0 Bft)
30.03.2007 17:00 13,6 C 36 % 1008 hPa 0,0 l/m - - 0,0 km/h (0 Bft)
30.03.2007 18:00 12,9 C 37 % 1008 hPa 0,0 l/m - - 0,0 km/h (0 Bft)
30.03.2007 19:00 11,8 C 39 % 1009 hPa 0,0 l/m - - 0,0 km/h (0 Bft)
30.03.2007 20:00 10,5 C 47 % 1009 hPa 0,0 l/m - - 0,0 km/h (0 Bft)
30.03.2007 21:00 9,2 C 51 % 1010 hPa 0,0 l/m - - 0,0 km/h (0 Bft)
30.03.2007 22:00 8,1 C 52 % 1010 hPa 0,0 l/m - - 0,0 km/h (0 Bft)
30.03.2007 23:00 7,0 C 57 % 1010 hPa 0,0 l/m - - 0,0 km/h (0 Bft)
31.03.2007 00:00 6,4 C 63 % 1011 hPa 0,0 l/m - - 0,0 km/h (0 Bft)
31.03.2007 01:00 5,6 C 69 % 1012 hPa 0,0 l/m - - 0,0 km/h (0 Bft)
31.03.2007 02:00 3,5 C 73 % 1013 hPa 0,0 l/m - - 0,0 km/h (0 Bft)
31.03.2007 03:00 2,7 C 76 % 1013 hPa 0,0 l/m - - 0,0 km/h (0 Bft)
31.03.2007 04:00 2,5 C 78 % 1014 hPa 0,0 l/m - - 0,0 km/h (0 Bft)
31.03.2007 05:00 2,3 C 80 % 1014 hPa 0,0 l/m - - 0,0 km/h (0 Bft)
31.03.2007 06:00 2,0 C 84 % 1014 hPa 0,0 l/m - - 0,0 km/h (0 Bft)
31.03.2007 07:00 1,8 C 87 % 1014 hPa 0,0 l/m - - 0,0 km/h (0 Bft)
31.03.2007 08:00 1,7 C 92 % 1014 hPa 0,0 l/m - - 0,0 km/h (0 Bft)
31.03.2007 09:00 1,6 C 95 % 1015 hPa 0,0 l/m - - 0,0 km/h (0 Bft)
31.03.2007 10:00 1,8 C 96 % 1015 hPa 0,0 l/m - - 0,0 km/h (0 Bft)
31.03.2007 11:00 2,7 C 98 % 1015 hPa 0,0 l/m - - 0,0 km/h (0 Bft)
31.03.2007 12:00 3,9 C 96 % 1015 hPa 0,0 l/m - - 0,0 km/h (0 Bft)
31.03.2007 13:00 5,3 C 87 % 1015 hPa 0,0 l/m - - 0,0 km/h (0 Bft)
31.03.2007 14:00 6,5 C 76 % 1015 hPa 0,0 l/m - - 0,0 km/h (0 Bft)
31.03.2007 15:00 6,9 C 73 % 1016 hPa 0,0 l/m - - 0,0 km/h (0 Bft)
31.03.2007 16:00 7,3 C 72 % 1016 hPa 0,0 l/m - - 0,0 km/h (0 Bft)
31.03.2007 17:00 7,5 C 69 % 1016 hPa 0,0 l/m - - 0,0 km/h (0 Bft)
31.03.2007 18:00 7,4 C 70 % 1017 hPa 0,0 l/m - - 0,0 km/h (0 Bft)
31.03.2007 19:00 6,7 C 73 % 1017 hPa 0,0 l/m - - 0,0 km/h (0 Bft)
31.03.2007 20:00 5,0 C 78 % 1017 hPa 0,0 l/m - - 0,0 km/h (0 Bft)
31.03.2007 21:00 3,9 C 85 % 1018 hPa 0,0 l/m - - 0,0 km/h (0 Bft)
31.03.2007 22:00 3,2 C 88 % 1018 hPa 0,0 l/m - - 0,0 km/h (0 Bft)
31.03.2007 23:00 2,5 C 90 % 1018 hPa 0,0 l/m - - 0,0 km/h (0 Bft)
01.04.2007 00:00 1,9 C 92 % 1019 hPa 0,0 l/m - - 0,0 km/h (0 Bft)
01.04.2007 01:00 1,3 C 93 % 1019 hPa 0,0 l/m - - 0,0 km/h (0 Bft)
01.04.2007 02:00 0,9 C 95 % 1019 hPa 0,0 l/m - - 0,0 km/h (0 Bft)
01.04.2007 03:00 0,9 C 96 % 1019 hPa 0,0 l/m - - 0,0 km/h (0 Bft)
01.04.2007 04:00 0,6 C 97 % 1019 hPa 0,0 l/m - - 0,0 km/h (0 Bft)
01.04.2007 05:00 0,3 C 98 % 1020 hPa 0,0 l/m - - 0,0 km/h (0 Bft)
01.04.2007 06:00 0,0 C 98 % 1020 hPa 0,0 l/m - - 0,0 km/h (0 Bft)
01.04.2007 07:00 0,5 C 98 % 1021 hPa 0,0 l/m - - 0,0 km/h (0 Bft)
01.04.2007 08:00 1,6 C 98 % 1021 hPa 0,0 l/m - - 0,0 km/h (0 Bft)
01.04.2007 09:00 3,4 C 98 % 1022 hPa 0,0 l/m - - 0,0 km/h (0 Bft)
01.04.2007 10:00 4,7 C 98 % 1023 hPa 1,0 l/m - - 0,0 km/h (0 Bft)
01.04.2007 11:00 5,8 C 98 % 1023 hPa 0,0 l/m - - 0,0 km/h (0 Bft)
01.04.2007 12:00 6,8 C 96 % 1023 hPa 0,0 l/m - - 0,0 km/h (0 Bft)
01.04.2007 13:00 7,9 C 88 % 1023 hPa 0,0 l/m - - 0,0 km/h (0 Bft)
01.04.2007 14:00 11,0 C 70 % 1023 hPa 0,0 l/m - - 0,0 km/h (0 Bft)
01.04.2007 15:00 13,6 C 52 % 1023 hPa 0,0 l/m - - 0,0 km/h (0 Bft)
01.04.2007 16:00 14,4 C 46 % 1023 hPa 0,0 l/m - - 0,0 km/h (0 Bft)
01.04.2007 17:00 14,6 C 39 % 1023 hPa 0,0 l/m - - 0,0 km/h (0 Bft)
01.04.2007 18:00 14,5 C 39 % 1024 hPa 0,0 l/m - - 0,0 km/h (0 Bft)
01.04.2007 19:00 13,2 C 43 % 1024 hPa 0,0 l/m - - 0,0 km/h (0 Bft)
01.04.2007 20:00 10,5 C 51 % 1024 hPa 0,0 l/m - - 0,0 km/h (0 Bft)
01.04.2007 21:00 8,7 C 59 % 1025 hPa 0,0 l/m - - 0,0 km/h (0 Bft)
01.04.2007 22:00 8,3 C 63 % 1025 hPa 0,0 l/m - - 0,0 km/h (0 Bft)
01.04.2007 23:00 7,8 C 64 % 1025 hPa 0,0 l/m - - 0,0 km/h (0 Bft)
Min-Datum _ 30.03.07 26.03.07 30.03.07 - - 26.03.07
_ Min-Zeit 06:42 16:26 15:51 - - 00:00
Minimum _ -0,1 C 35 % 1008 hPa - - 0,0 km/h (0 Bft)
Max-Datum _ 26.03.07 29.03.07 01.04.07 28.03.07 - 26.03.07
_ Max-Zeit 15:22 05:33 21:22 16:50 - 00:00
Maximum _ 14,8 C 98 % 1025 hPa 3,0 l/m - 0,0 km/h
- - (0 Bft)
Durchschnitt _ 6,4 C 69 % 1017 hPa #5,0 l/m - - 0,0 km/h (0 Bft)

Durchschnitt Minimum Temp.5,9 C
Durchschnitt Maximum Temp.6,9 C